Time;durP1;ratioP1;P1;durP2;ratioP2;P2;SDS_P1;SDS_P2;PMS_P1;PMS_P2;Temp;Humidity;BMP_temperature;BMP_pressure;BME280_temperature;BME280_humidity;BME280_pressure;Samples;Min_cycle;Max_cycle;Signal;HPM_P1;HPM_P2
2023/02/08 00:00:21;;;;;;;36.95;12.32;;;;;;;6.88;100.00;102814.97;5013967;28;20480;-77
2023/02/08 00:02:47;;;;;;;26.65;11.02;;;;;;;6.88;100.00;102817.63;4997549;28;20056;-76
2023/02/08 00:05:13;;;;;;;27.50;12.18;;;;;;;6.91;100.00;102812.97;4996661;28;20038;-77
2023/02/08 00:07:39;;;;;;;35.97;13.57;;;;;;;6.90;100.00;102807.69;4981589;28;20073;-77
2023/02/08 00:10:05;;;;;;;35.88;13.70;;;;;;;6.91;100.00;102802.25;5013789;28;20495;-78
2023/02/08 00:12:32;;;;;;;35.15;14.40;;;;;;;6.87;100.00;102792.72;5013381;28;20463;-78
2023/02/08 00:14:58;;;;;;;31.35;13.52;;;;;;;6.83;100.00;102793.88;4997537;28;20038;-77
2023/02/08 00:17:24;;;;;;;37.63;13.90;;;;;;;6.65;100.00;102789.75;5013226;28;20566;-77
2023/02/08 00:19:50;;;;;;;43.50;16.02;;;;;;;6.45;100.00;102796.38;5013763;28;20033;-77
2023/02/08 00:22:15;;;;;;;48.40;16.42;;;;;;;6.26;100.00;102802.03;4997421;28;20432;-77
2023/02/08 00:24:41;;;;;;;57.92;19.63;;;;;;;6.00;100.00;102783.19;5012990;28;20471;-77
2023/02/08 00:27:07;;;;;;;55.00;21.10;;;;;;;5.94;100.00;102807.59;4981118;28;20372;-77
2023/02/08 00:29:32;;;;;;;69.30;23.55;;;;;;;5.75;100.00;102786.50;5013599;28;20115;-77
2023/02/08 00:31:58;;;;;;;60.38;21.45;;;;;;;5.78;100.00;102806.81;4996192;28;20427;-77
2023/02/08 00:34:24;;;;;;;62.03;23.70;;;;;;;5.80;100.00;102807.56;4996699;28;20030;-78
2023/02/08 00:36:50;;;;;;;56.67;19.08;;;;;;;5.82;100.00;102811.88;5012731;28;20033;-78
2023/02/08 00:39:15;;;;;;;35.35;14.93;;;;;;;5.68;100.00;102796.66;4996538;28;20060;-77
2023/02/08 00:41:43;;;;;;;30.33;15.10;;;;;;;5.80;100.00;102803.09;5012870;28;20073;-77
2023/02/08 00:44:09;;;;;;;24.35;8.50;;;;;;;5.82;100.00;102810.97;5013234;28;20045;-78
2023/02/08 00:46:35;;;;;;;25.42;12.57;;;;;;;5.77;100.00;102802.41;4996805;28;20026;-77
2023/02/08 00:49:00;;;;;;;24.20;11.05;;;;;;;5.68;100.00;102780.66;4996716;28;20068;-77
2023/02/08 00:51:26;;;;;;;31.90;12.02;;;;;;;5.76;100.00;102793.53;4996613;28;20044;-78
2023/02/08 00:53:52;;;;;;;30.65;12.13;;;;;;;5.78;100.00;102790.78;5013004;28;20030;-77
2023/02/08 00:56:17;;;;;;;25.70;10.95;;;;;;;5.77;100.00;102786.38;4980662;28;20555;-77
2023/02/08 00:58:43;;;;;;;29.92;13.35;;;;;;;5.76;100.00;102782.84;5012476;28;20037;-77
2023/02/08 01:01:09;;;;;;;35.38;13.93;;;;;;;5.82;100.00;102784.28;4980584;28;20036;-77
2023/02/08 01:03:36;;;;;;;24.55;11.52;;;;;;;5.84;100.00;102782.38;4996204;28;20029;-80
2023/02/08 01:06:04;;;;;;;16.17;7.47;;;;;;;5.87;100.00;102774.19;5012984;28;20040;-77
2023/02/08 01:08:30;;;;;;;30.20;10.88;;;;;;;5.88;100.00;102775.91;5012749;28;20041;-77
2023/02/08 01:11:10;;;;;;;20.75;9.52;;;;;;;5.93;100.00;102776.50;5012713;28;20056;-76
2023/02/08 01:13:37;;;;;;;24.02;8.85;;;;;;;5.95;100.00;102761.25;4996701;28;20045;-76
2023/02/08 01:16:10;;;;;;;21.75;9.05;;;;;;;6.05;100.00;102773.06;5012872;28;20034;-77
2023/02/08 01:18:39;;;;;;;29.23;9.60;;;;;;;6.06;100.00;102766.78;4995974;28;20033;-76
2023/02/08 01:21:10;;;;;;;9.90;4.38;;;;;;;6.12;100.00;102761.03;4996666;28;20563;-77
2023/02/08 01:23:36;;;;;;;11.98;5.82;;;;;;;6.13;100.00;102754.72;4995732;28;20038;-77
2023/02/08 01:26:03;;;;;;;25.65;10.40;;;;;;;6.17;100.00;102747.41;5012205;28;20037;-77
2023/02/08 01:28:28;;;;;;;20.23;8.85;;;;;;;6.19;100.00;102747.28;5012683;28;20061;-76
2023/02/08 01:30:54;;;;;;;32.78;10.32;;;;;;;6.22;100.00;102737.28;4981790;28;20456;-77
2023/02/08 01:33:20;;;;;;;25.25;9.15;;;;;;;6.26;100.00;102735.25;5016791;28;20084;-77
2023/02/08 01:35:50;;;;;;;22.48;8.95;;;;;;;6.24;100.00;102734.50;4999934;28;20427;-76
2023/02/08 01:38:16;;;;;;;30.70;11.15;;;;;;;6.10;100.00;102712.19;5016603;28;20029;-77
2023/02/08 01:40:42;;;;;;;8.93;5.43;;;;;;;6.17;100.00;102723.38;5000218;28;20030;-76
2023/02/08 01:43:28;;;;;;;17.58;7.72;;;;;;;6.21;100.00;102710.66;4984174;28;20120;-76
2023/02/08 01:45:55;;;;;;;15.70;7.43;;;;;;;6.16;100.00;102709.13;5000268;28;20060;-77
2023/02/08 01:48:41;;;;;;;25.17;8.95;;;;;;;6.12;100.00;102702.28;4999777;28;20046;-77
2023/02/08 01:51:12;;;;;;;11.38;6.95;;;;;;;5.93;100.00;102681.25;4999551;28;20042;-77
2023/02/08 01:53:38;;;;;;;21.52;8.40;;;;;;;5.95;100.00;102694.50;4983966;28;20044;-78
2023/02/08 01:56:08;;;;;;;8.07;4.53;;;;;;;5.86;100.00;102682.56;4983200;28;20030;-77
2023/02/08 01:58:36;;;;;;;8.15;4.68;;;;;;;5.88;100.00;102693.16;4999980;28;20034;-77
2023/02/08 02:01:02;;;;;;;28.90;7.53;;;;;;;5.72;100.00;102671.91;4998846;28;20127;-77
2023/02/08 02:03:28;;;;;;;16.38;8.88;;;;;;;5.77;100.00;102682.28;4999962;28;20030;-77
2023/02/08 02:06:04;;;;;;;19.05;5.78;;;;;;;5.64;100.00;102668.88;5015981;28;20049;-77
2023/02/08 02:08:29;;;;;;;16.35;6.63;;;;;;;5.67;100.00;102679.34;4999556;28;20065;-77
2023/02/08 02:10:55;;;;;;;17.92;7.45;;;;;;;5.62;100.00;102671.63;5015737;28;20125;-77
2023/02/08 02:13:23;;;;;;;16.30;7.47;;;;;;;5.56;100.00;102671.13;4982917;28;20033;-77
2023/02/08 02:15:49;;;;;;;15.40;8.02;;;;;;;5.42;100.00;102675.53;4999772;28;20041;-76
2023/02/08 02:18:28;;;;;;;11.07;5.70;;;;;;;5.43;100.00;102679.94;5015259;28;20468;-77
2023/02/08 02:21:09;;;;;;;11.13;5.40;;;;;;;5.54;100.00;102679.25;4999762;28;20092;-77
2023/02/08 02:23:53;;;;;;;13.68;7.25;;;;;;;5.61;100.00;102669.94;5016003;28;20036;-78
2023/02/08 02:26:35;;;;;;;17.80;8.88;;;;;;;5.62;100.00;102650.28;5031311;28;20388;-77
2023/02/08 02:29:19;;;;;;;11.80;7.10;;;;;;;5.80;100.00;102663.41;4999451;28;20041;-77
2023/02/08 02:32:03;;;;;;;16.25;9.23;;;;;;;5.79;100.00;102653.69;5015797;28;20035;-76
2023/02/08 02:34:40;;;;;;;14.93;6.30;;;;;;;5.88;100.00;102663.78;5031605;28;20033;-77
2023/02/08 02:37:30;;;;;;;22.98;6.97;;;;;;;5.85;100.00;102653.31;4983206;28;20046;-77
2023/02/08 02:40:11;;;;;;;19.90;6.43;;;;;;;5.68;100.00;102647.22;5014648;28;20029;-78
2023/02/08 02:46:14;;;;;;;12.80;5.72;;;;;;;5.61;100.00;102669.94;5009145;28;20046;-78
2023/02/08 02:48:57;;;;;;;28.27;7.88;;;;;;;5.27;100.00;102661.34;5015524;28;20115;-78
2023/02/08 02:51:37;;;;;;;8.63;4.68;;;;;;;5.14;100.00;102670.19;4983226;28;20030;-78
2023/02/08 02:54:17;;;;;;;19.63;5.88;;;;;;;4.97;100.00;102673.88;5014753;28;20037;-78
2023/02/08 02:56:45;;;;;;;20.92;7.28;;;;;;;4.81;100.00;102689.91;5014883;28;20373;-76
2023/02/08 02:59:12;;;;;;;8.82;4.72;;;;;;;4.80;100.00;102683.75;4998702;28;20026;-77
2023/02/08 03:01:39;;;;;;;19.00;6.47;;;;;;;4.91;100.00;102687.56;4998572;28;20041;-77
2023/02/08 03:04:36;;;;;;;15.90;7.57;;;;;;;5.13;100.00;102693.31;5014151;28;20029;-76
2023/02/08 03:07:11;;;;;;;16.75;8.00;;;;;;;5.29;100.00;102702.13;5015014;28;20054;-76
2023/02/08 03:10:04;;;;;;;16.13;7.35;;;;;;;5.41;100.00;102699.66;5014230;28;20041;-78
2023/02/08 03:12:39;;;;;;;21.63;8.32;;;;;;;5.46;100.00;102701.06;5014970;28;20042;-77
2023/02/08 03:15:16;;;;;;;21.00;4.40;;;;;;;5.46;100.00;102682.41;5014984;28;20034;-76
2023/02/08 03:18:11;;;;;;;18.17;7.60;;;;;;;5.49;100.00;102686.69;4997779;28;20375;-77
2023/02/08 03:20:40;;;;;;;15.27;6.07;;;;;;;5.57;100.00;102689.75;5030907;28;20042;-77
2023/02/08 03:23:14;;;;;;;13.05;5.45;;;;;;;5.60;100.00;102689.53;4998572;28;20121;-77
2023/02/08 03:26:04;;;;;;;17.58;7.28;;;;;;;5.66;100.00;102685.63;4997932;28;20068;-77
2023/02/08 03:28:55;;;;;;;11.38;5.00;;;;;;;5.69;100.00;102666.78;4998471;28;20072;-77
2023/02/08 03:31:42;;;;;;;14.18;5.35;;;;;;;5.56;100.00;102626.66;5013973;28;20033;-77
2023/02/08 03:34:13;;;;;;;27.70;9.23;;;;;;;5.75;100.00;102631.69;5014490;28;20034;-77
2023/02/08 03:36:52;;;;;;;20.55;3.53;;;;;;;5.78;100.00;102617.28;5014291;28;20045;-78
2023/02/08 03:39:26;;;;;;;17.90;6.05;;;;;;;5.72;100.00;102606.03;4981545;28;20034;-77
2023/02/08 03:41:56;;;;;;;10.82;5.30;;;;;;;5.67;100.00;102602.81;4982054;28;20044;-77
2023/02/08 03:44:28;;;;;;;18.58;5.57;;;;;;;5.60;100.00;102592.63;4997621;28;20095;-77
2023/02/08 03:47:03;;;;;;;5.85;3.67;;;;;;;5.56;100.00;102604.44;5014354;28;20100;-76
2023/02/08 03:49:32;;;;;;;13.38;4.93;;;;;;;5.46;100.00;102589.03;4997869;28;20391;-76
2023/02/08 03:52:00;;;;;;;9.98;3.45;;;;;;;5.16;100.00;102573.16;5013591;28;20041;-76
2023/02/08 03:54:30;;;;;;;23.48;5.88;;;;;;;4.91;100.00;102599.59;4997306;28;20112;-76
2023/02/08 03:57:20;;;;;;;10.40;4.78;;;;;;;4.64;100.00;102605.66;4980669;28;20045;-77
2023/02/08 03:59:50;;;;;;;11.27;5.00;;;;;;;4.40;100.00;102600.84;4997522;28;20038;-77
2023/02/08 04:02:22;;;;;;;13.77;5.03;;;;;;;4.30;100.00;102593.47;5013960;28;20034;-77
2023/02/08 04:04:49;;;;;;;7.07;3.25;;;;;;;4.28;100.00;102579.41;4997229;28;20034;-77
2023/02/08 04:07:16;;;;;;;17.30;5.90;;;;;;;4.17;100.00;102564.06;4997708;28;20041;-78
2023/02/08 04:09:44;;;;;;;14.23;4.85;;;;;;;4.10;100.00;102586.63;4997254;28;20084;-76
2023/02/08 04:12:10;;;;;;;10.35;2.38;;;;;;;3.93;100.00;102577.84;5013354;28;20029;-77
2023/02/08 04:14:36;;;;;;;11.65;4.10;;;;;;;4.14;100.00;102609.50;4997484;28;20049;-77
2023/02/08 04:17:02;;;;;;;6.85;2.50;;;;;;;4.13;100.00;102605.13;4997499;28;20034;-77
2023/02/08 04:19:28;;;;;;;13.35;4.80;;;;;;;4.17;100.00;102585.34;4996452;28;20034;-77
2023/02/08 04:21:54;;;;;;;10.38;5.38;;;;;;;3.99;100.00;102554.47;5013240;28;20026;-77
2023/02/08 04:24:19;;;;;;;11.30;4.28;;;;;;;3.99;100.00;102557.97;4981171;28;20030;-76
2023/02/08 04:26:46;;;;;;;10.32;3.40;;;;;;;3.88;100.00;102524.00;4980159;28;20435;-77
2023/02/08 04:29:11;;;;;;;14.85;4.90;;;;;;;3.68;100.00;102511.03;4997017;28;20457;-76
2023/02/08 04:31:37;;;;;;;15.85;4.53;;;;;;;3.59;100.00;102538.97;4981102;28;20175;-77
2023/02/08 04:34:20;;;;;;;4.03;2.15;;;;;;;3.46;100.00;102529.97;4980610;28;20034;-77
2023/02/08 04:36:45;;;;;;;9.38;3.97;;;;;;;3.71;100.00;102537.44;5012987;28;20038;-77
2023/02/08 04:39:11;;;;;;;7.47;2.60;;;;;;;3.79;100.00;102542.34;5013052;28;20038;-77
2023/02/08 04:41:37;;;;;;;16.40;5.28;;;;;;;3.77;100.00;102520.28;4980658;28;20042;-78
2023/02/08 04:44:03;;;;;;;15.10;4.82;;;;;;;3.62;100.00;102524.66;4979884;28;20040;-77
2023/02/08 04:46:28;;;;;;;10.27;4.85;;;;;;;3.50;100.00;102524.41;5012883;28;20556;-76
2023/02/08 04:48:54;;;;;;;8.30;4.28;;;;;;;3.47;100.00;102521.94;4996394;28;20038;-76
2023/02/08 04:51:20;;;;;;;9.55;4.30;;;;;;;3.51;100.00;102538.56;4996919;28;20045;-77
2023/02/08 04:53:45;;;;;;;11.10;3.75;;;;;;;3.52;100.00;102546.47;4996898;28;20116;-77
2023/02/08 04:56:11;;;;;;;13.98;5.78;;;;;;;3.55;100.00;102548.09;4980396;28;20034;-77
2023/02/08 04:58:37;;;;;;;13.18;4.32;;;;;;;3.53;100.00;102548.16;5012868;28;20046;-76
2023/02/08 05:01:06;;;;;;;13.35;4.45;;;;;;;3.41;100.00;102527.56;4996097;28;20033;-78
2023/02/08 05:03:32;;;;;;;8.60;3.45;;;;;;;3.59;100.00;102554.94;4996393;28;20088;-77
2023/02/08 05:05:59;;;;;;;12.10;4.72;;;;;;;3.64;100.00;102547.56;5011763;28;20026;-76
2023/02/08 05:08:25;;;;;;;13.35;3.20;;;;;;;3.61;100.00;102542.41;5012985;28;20056;-77
2023/02/08 05:10:50;;;;;;;7.10;3.10;;;;;;;3.62;100.00;102540.63;4996503;28;20059;-77
2023/02/08 05:13:16;;;;;;;8.20;3.15;;;;;;;3.54;100.00;102530.41;4996402;28;20567;-77
2023/02/08 05:15:42;;;;;;;3.65;1.88;;;;;;;3.46;100.00;102532.63;4996620;28;20049;-77
2023/02/08 05:18:08;;;;;;;11.27;4.18;;;;;;;3.46;100.00;102525.50;4996470;28;20104;-77
2023/02/08 05:20:33;;;;;;;16.20;4.05;;;;;;;3.40;100.00;102525.88;4995957;28;20034;-77
2023/02/08 05:22:59;;;;;;;11.73;4.60;;;;;;;3.33;100.00;102518.31;4996573;28;20073;-76
2023/02/08 05:25:25;;;;;;;10.65;3.47;;;;;;;3.30;100.00;102519.34;4980269;28;20380;-77
2023/02/08 05:27:51;;;;;;;9.40;3.13;;;;;;;3.32;100.00;102505.97;4979351;28;20042;-77
2023/02/08 05:30:16;;;;;;;10.23;3.60;;;;;;;3.44;100.00;102503.50;4996561;28;20057;-77
2023/02/08 05:32:42;;;;;;;13.32;3.88;;;;;;;3.47;100.00;102510.44;4996409;28;20030;-77
2023/02/08 05:35:08;;;;;;;16.42;5.03;;;;;;;3.48;100.00;102491.72;4996108;28;20034;-77
2023/02/08 05:37:34;;;;;;;13.00;5.18;;;;;;;3.32;100.00;102504.16;4979912;28;20042;-76
2023/02/08 05:40:00;;;;;;;12.30;3.90;;;;;;;3.17;100.00;102495.22;5012162;28;20030;-77
2023/02/08 05:42:26;;;;;;;11.32;3.33;;;;;;;3.30;100.00;102511.38;4979005;28;20041;-77
2023/02/08 05:44:51;;;;;;;20.88;4.63;;;;;;;3.33;100.00;102515.66;4995983;28;20046;-77
2023/02/08 05:47:17;;;;;;;11.38;3.67;;;;;;;3.29;100.00;102514.97;4996336;28;20099;-76
2023/02/08 05:49:43;;;;;;;9.90;3.15;;;;;;;3.30;100.00;102500.72;4996251;28;20434;-76
2023/02/08 05:52:09;;;;;;;8.00;3.83;;;;;;;3.23;100.00;102502.88;5011381;28;20084;-77
2023/02/08 05:54:35;;;;;;;14.05;4.32;;;;;;;3.25;100.00;102508.97;4996318;28;20042;-77
2023/02/08 05:57:00;;;;;;;10.73;3.50;;;;;;;3.18;100.00;102504.94;4980047;28;20052;-77
2023/02/08 05:59:26;;;;;;;4.05;2.03;;;;;;;3.24;100.00;102506.41;4994826;28;20100;-77
2023/02/08 06:01:52;;;;;;;14.80;4.70;;;;;;;3.26;100.00;102509.84;4995762;28;20169;-77
2023/02/08 06:04:18;;;;;;;9.02;3.55;;;;;;;3.22;100.00;102513.59;4996114;28;20034;-77
2023/02/08 06:06:43;;;;;;;9.90;2.90;;;;;;;3.15;100.00;102509.56;4979065;28;20065;-78
2023/02/08 06:09:09;;;;;;;14.60;4.28;;;;;;;3.13;100.00;102514.97;4979944;28;20026;-77
2023/02/08 06:11:37;;;;;;;11.70;3.42;;;;;;;3.12;100.00;102528.34;4996249;28;20034;-77
2023/02/08 06:14:03;;;;;;;7.88;3.55;;;;;;;3.10;100.00;102520.47;4979181;28;20058;-76
2023/02/08 06:16:29;;;;;;;14.65;3.53;;;;;;;3.12;100.00;102515.91;4997203;28;20461;-78
2023/02/08 06:18:54;;;;;;;11.70;2.75;;;;;;;3.05;100.00;102518.03;4983255;28;20443;-77
2023/02/08 06:21:20;;;;;;;14.57;2.47;;;;;;;3.06;100.00;102525.06;4998458;28;20026;-77
2023/02/08 06:23:46;;;;;;;3.42;1.95;;;;;;;3.07;100.00;102507.34;4999636;28;20044;-77
2023/02/08 06:26:11;;;;;;;3.92;1.95;;;;;;;3.13;100.00;102504.34;4983382;28;20053;-77
2023/02/08 06:28:37;;;;;;;5.15;3.05;;;;;;;3.14;100.00;102500.72;4998855;28;20029;-77
2023/02/08 06:31:03;;;;;;;13.80;4.30;;;;;;;3.09;100.00;102513.41;4999069;28;20463;-77
2023/02/08 06:33:29;;;;;;;23.27;4.25;;;;;;;2.99;100.00;102517.50;4999456;28;20037;-77
2023/02/08 06:35:54;;;;;;;14.07;3.60;;;;;;;2.94;100.00;102508.94;4998671;28;20112;-76
2023/02/08 06:38:20;;;;;;;14.15;3.25;;;;;;;2.88;100.00;102515.44;4999401;28;20045;-77
2023/02/08 06:40:47;;;;;;;8.07;2.28;;;;;;;2.89;100.00;102505.69;4998977;28;20460;-76
2023/02/08 06:43:13;;;;;;;9.88;3.38;;;;;;;2.93;100.00;102504.56;5014423;28;20454;-77
2023/02/08 06:45:39;;;;;;;8.00;3.72;;;;;;;2.77;100.00;102493.91;5015058;28;20116;-76
2023/02/08 06:48:05;;;;;;;11.18;4.15;;;;;;;2.87;100.00;102513.72;4983020;28;20109;-77
2023/02/08 06:50:31;;;;;;;4.90;2.47;;;;;;;2.83;100.00;102523.69;4982098;28;20038;-77
2023/02/08 06:52:56;;;;;;;6.00;2.97;;;;;;;2.84;100.00;102520.06;5014887;28;20084;-77
2023/02/08 06:55:22;;;;;;;11.00;2.60;;;;;;;2.79;100.00;102514.13;4982955;28;20033;-77
2023/02/08 06:57:48;;;;;;;3.03;2.30;;;;;;;2.80;100.00;102505.22;4998106;28;20472;-77
2023/02/08 07:00:14;;;;;;;5.53;1.98;;;;;;;2.81;100.00;102500.78;4998679;28;20089;-76
2023/02/08 07:02:39;;;;;;;13.50;3.60;;;;;;;2.80;100.00;102491.09;5015058;28;20112;-77
2023/02/08 07:05:05;;;;;;;4.07;1.60;;;;;;;2.79;100.00;102481.41;4997638;28;20124;-77
2023/02/08 07:07:31;;;;;;;5.80;2.90;;;;;;;2.80;100.00;102491.94;4998847;28;20026;-77
2023/02/08 07:09:57;;;;;;;2.10;1.35;;;;;;;2.66;100.00;102478.56;4998381;28;20040;-77
2023/02/08 07:12:22;;;;;;;8.85;3.35;;;;;;;2.62;100.00;102483.19;4998822;28;20033;-77
2023/02/08 07:14:48;;;;;;;4.28;2.10;;;;;;;2.60;100.00;102486.84;4982561;28;20392;-77
2023/02/08 07:17:14;;;;;;;6.50;2.22;;;;;;;2.45;100.00;102456.66;4997733;28;20042;-76
2023/02/08 07:19:40;;;;;;;13.02;3.97;;;;;;;2.62;100.00;102471.69;5014356;28;20079;-76
2023/02/08 07:22:09;;;;;;;9.07;2.72;;;;;;;2.53;100.00;102462.41;5014030;28;20119;-77
2023/02/08 07:24:39;;;;;;;7.38;2.38;;;;;;;2.61;100.00;102470.81;4998633;28;20180;-76
2023/02/08 07:27:06;;;;;;;6.80;2.85;;;;;;;2.66;100.00;102462.63;4998039;28;20128;-77
2023/02/08 07:29:33;;;;;;;9.02;3.15;;;;;;;2.71;100.00;102452.59;4997992;28;20060;-77
2023/02/08 07:31:59;;;;;;;11.73;3.83;;;;;;;2.68;100.00;102455.44;4998403;28;20069;-77
2023/02/08 07:34:27;;;;;;;17.13;3.30;;;;;;;2.59;100.00;102445.28;5014072;28;20044;-77
2023/02/08 07:36:53;;;;;;;10.80;3.05;;;;;;;2.52;100.00;102426.19;4998286;28;20056;-77
2023/02/08 07:39:19;;;;;;;10.70;3.15;;;;;;;2.60;100.00;102437.25;4997320;28;20535;-77
2023/02/08 07:41:44;;;;;;;12.73;2.92;;;;;;;2.51;100.00;102416.47;4998154;28;20041;-77
2023/02/08 07:44:10;;;;;;;8.85;2.65;;;;;;;2.57;100.00;102410.88;4997260;28;20109;-77
2023/02/08 07:46:36;;;;;;;3.20;1.05;;;;;;;2.68;100.00;102407.63;4998116;28;20476;-77
2023/02/08 07:49:02;;;;;;;6.05;2.58;;;;;;;2.88;100.00;102410.97;4981052;28;20022;-77
2023/02/08 07:51:27;;;;;;;3.53;1.60;;;;;;;2.94;100.00;102400.88;4997907;28;20034;-77
2023/02/08 07:53:53;;;;;;;8.95;1.77;;;;;;;3.15;100.00;102400.56;4981108;28;20034;-77
2023/02/08 07:56:19;;;;;;;4.70;2.60;;;;;;;3.22;100.00;102405.47;4997868;28;20136;-77
2023/02/08 07:58:44;;;;;;;3.53;1.67;;;;;;;3.28;100.00;102404.25;4981549;28;20118;-78
2023/02/08 08:01:10;;;;;;;10.18;3.05;;;;;;;3.26;100.00;102384.91;4997278;28;20034;-76
2023/02/08 08:03:36;;;;;;;7.70;1.83;;;;;;;3.28;100.00;102396.28;4981572;28;20033;-76
2023/02/08 08:06:02;;;;;;;2.78;1.33;;;;;;;3.26;100.00;102385.75;4996819;28;20109;-77
2023/02/08 08:08:27;;;;;;;11.55;2.70;;;;;;;3.35;100.00;102402.09;4997503;28;20048;-77
2023/02/08 08:10:53;;;;;;;8.63;1.83;;;;;;;3.12;100.00;102359.09;4997541;28;20092;-77
2023/02/08 08:13:19;;;;;;;3.88;1.92;;;;;;;3.35;100.00;102404.75;4996612;28;20124;-77
2023/02/08 08:15:46;;;;;;;12.68;2.38;;;;;;;3.30;100.00;102416.50;4997511;28;20030;-77
2023/02/08 08:18:11;;;;;;;5.32;1.65;;;;;;;3.24;100.00;102421.34;4981185;28;20042;-77
2023/02/08 08:20:37;;;;;;;11.35;2.88;;;;;;;3.24;100.00;102416.03;5012830;28;20026;-77
2023/02/08 08:23:03;;;;;;;12.05;2.70;;;;;;;3.22;100.00;102409.94;4996943;28;20376;-77
2023/02/08 08:25:29;;;;;;;8.77;1.83;;;;;;;3.15;100.00;102389.94;4997244;28;20069;-77
2023/02/08 08:27:54;;;;;;;16.83;2.63;;;;;;;3.24;100.00;102394.75;4997274;28;20065;-77
2023/02/08 08:30:20;;;;;;;11.65;2.13;;;;;;;3.23;100.00;102383.25;4980597;28;20030;-77
2023/02/08 08:32:46;;;;;;;26.17;3.85;;;;;;;3.25;100.00;102385.81;4997206;28;20124;-76
2023/02/08 08:35:12;;;;;;;9.90;2.40;;;;;;;3.32;100.00;102381.88;4997011;28;20046;-77
2023/02/08 08:37:38;;;;;;;11.77;2.67;;;;;;;3.36;100.00;102372.78;4981062;28;20487;-77
2023/02/08 08:40:05;;;;;;;12.27;4.32;;;;;;;3.34;100.00;102357.88;5013060;28;20380;-76
2023/02/08 08:42:40;;;;;;;24.67;5.50;;;;;;;3.44;100.00;102361.66;4996457;28;20471;-76
2023/02/08 08:45:07;;;;;;;7.20;2.28;;;;;;;3.65;100.00;102356.88;4996368;28;20451;-77
2023/02/08 08:47:33;;;;;;;20.55;4.28;;;;;;;3.75;100.00;102358.06;4996613;28;20037;-76
2023/02/08 08:50:00;;;;;;;7.13;2.55;;;;;;;3.87;100.00;102359.13;4980612;28;20629;-77
2023/02/08 08:52:25;;;;;;;5.07;1.25;;;;;;;3.87;100.00;102352.00;4980287;28;20461;-76
2023/02/08 08:54:51;;;;;;;4.65;2.15;;;;;;;4.12;100.00;102363.78;5012613;28;20025;-76
2023/02/08 08:57:17;;;;;;;11.60;2.65;;;;;;;4.15;100.00;102350.28;4980300;28;20076;-76
2023/02/08 08:59:43;;;;;;;12.43;2.50;;;;;;;4.41;100.00;102354.84;5011762;28;20038;-77
2023/02/08 09:02:12;;;;;;;16.27;3.60;;;;;;;4.28;100.00;102313.13;4996505;28;20096;-77
2023/02/08 09:04:39;;;;;;;5.20;1.60;;;;;;;4.43;100.00;102332.59;4979923;28;20038;-76
2023/02/08 09:07:06;;;;;;;9.45;2.78;;;;;;;4.69;100.00;102366.44;5011016;28;20021;-76
2023/02/08 09:09:32;;;;;;;5.50;1.73;;;;;;;4.77;100.00;102341.97;5012834;28;20033;-76
2023/02/08 09:11:57;;;;;;;9.60;2.80;;;;;;;4.94;100.00;102360.34;5014060;28;20353;-77
2023/02/08 09:14:23;;;;;;;7.50;3.03;;;;;;;4.95;100.00;102356.75;4979736;28;20129;-76
2023/02/08 09:16:49;;;;;;;11.70;2.15;;;;;;;5.04;100.00;102347.28;4996396;28;20100;-77
2023/02/08 09:19:15;;;;;;;1.90;1.38;;;;;;;5.23;100.00;102355.78;4979579;28;20030;-76
2023/02/08 09:21:41;;;;;;;8.88;1.75;;;;;;;5.25;100.00;102331.69;4980378;28;20125;-76
2023/02/08 09:24:08;;;;;;;6.22;1.95;;;;;;;5.40;100.00;102345.78;4996547;28;20033;-76
2023/02/08 09:26:34;;;;;;;6.60;2.28;;;;;;;5.44;100.00;102342.81;4996492;28;20132;-76
2023/02/08 09:29:00;;;;;;;23.60;1.80;;;;;;;5.56;100.00;102349.16;4995717;28;20072;-76
2023/02/08 09:31:30;;;;;;;15.63;2.28;;;;;;;5.75;100.00;102355.91;4996451;28;20034;-76
2023/02/08 09:33:58;;;;;;;4.95;1.55;;;;;;;5.83;100.00;102348.22;5012036;28;20030;-77
2023/02/08 09:36:26;;;;;;;8.13;2.10;;;;;;;5.98;100.00;102347.19;5012255;28;20438;-80
2023/02/08 09:38:59;;;;;;;6.72;1.40;;;;;;;6.08;100.00;102331.38;4995456;28;20030;-76
2023/02/08 09:41:36;;;;;;;4.90;1.83;;;;;;;6.23;100.00;102327.63;4996090;28;20046;-76
2023/02/08 09:44:20;;;;;;;1.40;1.08;;;;;;;6.25;100.00;102323.03;5028851;28;20042;-76
2023/02/08 09:47:21;;;;;;;5.25;1.48;;;;;;;6.45;100.00;102324.25;5012064;28;20042;-76
2023/02/08 09:50:02;;;;;;;18.25;1.92;;;;;;;6.35;100.00;102285.81;4997532;28;20547;-76
2023/02/08 09:52:36;;;;;;;6.63;2.08;;;;;;;6.67;100.00;102317.34;5015683;28;20515;-77
2023/02/08 09:55:24;;;;;;;9.10;3.20;;;;;;;6.73;100.00;102314.25;5016199;28;20029;-76
2023/02/08 09:57:53;;;;;;;6.70;3.15;;;;;;;6.82;100.00;102303.69;4992458;28;20459;-76
2023/02/08 10:00:43;;;;;;;7.32;1.70;;;;;;;6.88;100.00;102305.09;4983768;28;20042;-76
2023/02/08 10:03:22;;;;;;;7.28;2.20;;;;;;;6.97;100.00;102296.38;5016253;28;20041;-76
2023/02/08 10:05:48;;;;;;;6.40;1.95;;;;;;;6.85;100.00;102273.22;4983556;28;20472;-76
2023/02/08 10:08:13;;;;;;;13.82;4.00;;;;;;;7.05;100.00;102287.78;5000034;28;20041;-76
2023/02/08 10:11:18;;;;;;;8.05;2.92;;;;;;;7.10;100.00;102266.03;5031814;28;20092;-76
2023/02/08 10:13:46;;;;;;;9.93;2.63;;;;;;;7.09;100.00;102240.25;4999275;28;20484;-76
2023/02/08 10:16:53;;;;;;;6.55;1.98;;;;;;;7.40;100.00;102262.84;5015694;28;20038;-76
2023/02/08 10:19:32;;;;;;;5.13;2.10;;;;;;;7.54;100.00;102269.78;5032112;28;20045;-76
2023/02/08 10:22:03;;;;;;;11.07;2.63;;;;;;;7.64;100.00;102262.75;5015038;28;20041;-83
2023/02/08 10:24:37;;;;;;;12.23;2.42;;;;;;;7.82;100.00;102263.16;4999150;28;20452;-76
2023/02/08 10:27:09;;;;;;;11.63;3.25;;;;;;;7.94;100.00;102256.84;5015548;28;20038;-78
2023/02/08 10:29:58;;;;;;;4.57;3.00;;;;;;;8.08;100.00;102258.41;5031386;28;20030;-77
2023/02/08 10:32:35;;;;;;;6.60;2.60;;;;;;;8.09;100.00;102252.91;5015264;28;20084;-79
2023/02/08 10:35:10;;;;;;;6.57;2.42;;;;;;;8.21;100.00;102261.78;5015749;28;20125;-77
2023/02/08 10:37:39;;;;;;;13.27;2.13;;;;;;;8.18;100.00;102247.78;5014412;28;20472;-77
2023/02/08 10:40:37;;;;;;;13.65;2.72;;;;;;;8.30;100.00;102263.72;5014827;28;20026;-78
2023/02/08 10:43:17;;;;;;;11.63;2.15;;;;;;;8.27;100.00;102249.72;4999316;28;20080;-77
2023/02/08 10:45:52;;;;;;;10.35;2.13;;;;;;;8.37;100.00;102256.91;5016101;28;20385;-77
2023/02/08 10:48:30;;;;;;;14.10;4.30;;;;;;;8.23;100.00;102241.09;5015527;28;20038;-78
2023/02/08 10:50:56;;;;;;;3.60;1.77;;;;;;;8.21;100.00;102247.56;4999269;28;20042;-78
2023/02/08 10:53:21;;;;;;;6.97;1.92;;;;;;;8.19;100.00;102244.97;4998249;28;20049;-78
2023/02/08 10:55:48;;;;;;;6.97;2.50;;;;;;;8.17;100.00;102238.88;5015166;28;20118;-76
2023/02/08 10:58:19;;;;;;;9.80;2.30;;;;;;;8.14;100.00;102250.72;5014836;28;20030;-77
2023/02/08 11:00:46;;;;;;;14.65;2.45;;;;;;;8.15;100.00;102256.94;4982261;28;20037;-77
2023/02/08 11:03:20;;;;;;;8.45;1.80;;;;;;;8.17;100.00;102256.81;4997537;28;20036;-77
2023/02/08 11:05:46;;;;;;;4.07;2.08;;;;;;;8.16;100.00;102237.19;4998348;28;20025;-79
2023/02/08 11:08:16;;;;;;;7.85;2.13;;;;;;;8.22;100.00;102242.06;5014743;28;20033;-77
2023/02/08 11:10:45;;;;;;;11.57;2.50;;;;;;;8.26;100.00;102224.75;4998801;28;20124;-77
2023/02/08 11:13:20;;;;;;;8.00;2.45;;;;;;;8.37;100.00;102232.78;4998018;28;20384;-79
2023/02/08 11:15:58;;;;;;;10.90;2.72;;;;;;;8.41;100.00;102229.88;4982751;28;20041;-77
2023/02/08 11:18:26;;;;;;;14.63;2.90;;;;;;;8.41;100.00;102213.78;4981739;28;20539;-79
2023/02/08 11:20:56;;;;;;;7.13;2.28;;;;;;;8.55;100.00;102226.94;5030390;28;20038;-80
2023/02/08 11:23:31;;;;;;;8.52;2.15;;;;;;;8.56;100.00;102215.22;4998357;28;20033;-79
2023/02/08 11:26:33;;;;;;;16.52;4.55;;;;;;;8.67;99.23;102220.53;4982261;28;20435;-79
2023/02/08 11:29:10;;;;;;;15.93;3.50;;;;;;;8.69;100.00;102223.94;4974297;28;20049;-78
2023/02/08 11:31:39;;;;;;;8.40;3.38;;;;;;;8.68;100.00;102211.53;5007407;28;20395;-77
2023/02/08 11:34:08;;;;;;;12.15;3.60;;;;;;;8.83;100.00;102221.94;4998099;28;20384;-78